Weather History for Middletown, OH

Change the Weather History Date:

Friday, March 8, 2013

  Actual Average (KDAY) Record (KDAY)
Temperature  
Mean Temperature 31 °F 37 °F  
Max Temperature 41 °F 46 °F 77 °F (1974)
Min Temperature 21 °F 29 °F 1 °F (1960)
Degree Days  
Heating Degree Days 34 28  
Month to date heating degree days 231  
Since 1 July heating degree days 4506  
Cooling Degree Days 0 0  
Month to date cooling degree days 0  
Year to date cooling degree days 0  
Moisture  
Dew Point 26 °F    
Average Humidity 82    
Maximum Humidity 100    
Minimum Humidity 51    
Precipitation  
Precipitation 0.00 in 0.10 in 0.71 in (1919)
Month to date precipitation 0.73  
Year to date precipitation 5.68  
Snow  
Snow 0.00 in 0.10 in 10.30 in (2008)
Month to date snowfall 1.2  
Since 1 July snowfall 20.5  
Snow Depth -    
Sea Level Pressure  
Sea Level Pressure 30.44 in    
Wind  
Wind Speed 2 mph (NE)    
Max Wind Speed 8 mph    
Max Gust Speed -    
Visibility 9 miles    
Events      
T = Trace of Precipitation, MM = Missing Value Source: NWS Daily Summary

Daily Weather History Graph

Daily Weather History Graph

Search for Another Location

Airport:

Trip Planner

Search our weather history database for the weather conditions in past years. The results will help you decide how hot, cold, wet, or windy it might be!

Date:

Astronomy

Mar. 08, 2013 Rise Set
Actual Time 6:59 AM EST 6:37 PM EST
Civil Twilight 6:32 AM EST 7:04 PM EST
Nautical Twilight 6:01 AM EST 7:35 PM EST
Astronomical Twilight 5:30 AM EST 8:06 PM EST
Moon 4:42 AM EST (3/8) 3:32 PM EST (3/8)
Length of Visible Light 12h 31m
Length of Day
11h 38m
Waning Crescent, 12% of the Moon is Illuminated
Mar 8
Waning Crescent
Mar 11
New
Mar 19
First Quarter
Mar 27
Full
Apr 3
Last Quarter

Hourly Weather History & Observations

Time (EST) Temp. Windchill Dew Point Humidity Pressure Visibility Wind Dir Wind Speed Gust Speed Precip Events Conditions
12:15 AM 29.3 °F - 29.3 °F 100% 30.40 in 10.0 mi Calm Calm - N/A   Overcast
12:35 AM 30.2 °F - 30.2 °F 100% 30.40 in 10.0 mi Calm Calm - N/A   Overcast
12:55 AM 30.2 °F 26.7 °F 29.5 °F 97% 30.40 in 10.0 mi NNE 3.5 mph - N/A   Scattered Clouds
1:15 AM 30.2 °F - 28.4 °F 93% 30.40 in 10.0 mi Calm Calm - N/A   Clear
1:35 AM 28.2 °F - 27.0 °F 95% 30.41 in 10.0 mi Calm Calm - N/A   Clear
1:55 AM 27.9 °F - 26.6 °F 95% 30.41 in 10.0 mi Calm Calm - N/A   Clear
2:15 AM 27.9 °F - 25.7 °F 92% 30.41 in 10.0 mi Calm Calm - N/A   Clear
2:35 AM 27.9 °F 24.0 °F 25.7 °F 92% 30.41 in 10.0 mi NE 3.5 mph - N/A   Clear
2:55 AM 27.9 °F 24.0 °F 26.2 °F 94% 30.41 in 10.0 mi NNE 3.5 mph - N/A   Clear
3:15 AM 27.0 °F - 24.4 °F 90% 30.41 in 10.0 mi Calm Calm - N/A   Clear
3:35 AM 25.3 °F - 24.6 °F 97% 30.40 in 10.0 mi Calm Calm - N/A   Clear
3:55 AM 22.5 °F - 22.3 °F 99% 30.40 in 10.0 mi Calm Calm - N/A   Clear
4:15 AM 23.9 °F - 23.7 °F 99% 30.41 in 10.0 mi Calm Calm - N/A   Clear
4:35 AM 25.0 °F - 25.0 °F 100% 30.42 in 10.0 mi Calm Calm - N/A   Clear
4:55 AM 24.1 °F 19.7 °F 24.1 °F 100% 30.43 in 5.0 mi ENE 3.5 mph - N/A   Clear
5:15 AM 21.9 °F 17.2 °F 21.9 °F 100% 30.43 in 7.0 mi NE 3.5 mph - N/A   Clear
5:35 AM 25.3 °F 21.1 °F 25.3 °F 100% 30.44 in 5.0 mi NE 3.5 mph - N/A   Clear
5:55 AM 25.3 °F 19.7 °F 25.3 °F 100% 30.44 in 3.0 mi NE 4.6 mph - N/A   Clear
6:15 AM 25.3 °F - 25.3 °F 100% 30.45 in 5.0 mi Calm Calm - N/A   Clear
6:35 AM 25.3 °F - 25.3 °F 100% 30.46 in 7.0 mi Calm Calm - N/A   Clear
6:55 AM 25.2 °F - 25.2 °F 100% 30.47 in 7.0 mi Calm Calm - N/A   Clear
7:15 AM 25.9 °F - 25.9 °F 100% 30.48 in 4.0 mi Calm Calm - N/A   Clear
7:35 AM 25.0 °F - 25.0 °F 100% 30.48 in 2.5 mi Calm Calm - N/A   Clear
7:55 AM 25.3 °F 21.1 °F 25.3 °F 100% 30.48 in 5.0 mi NE 3.5 mph - N/A   Clear
8:15 AM 25.3 °F 19.7 °F 25.3 °F 100% 30.48 in 5.0 mi ENE 4.6 mph - N/A   Clear
8:35 AM 27.9 °F 22.6 °F 27.9 °F 100% 30.47 in 10.0 mi ENE 4.6 mph - N/A   Clear
8:55 AM 27.9 °F - 26.6 °F 95% 30.48 in 10.0 mi Calm Calm - N/A   Clear
9:15 AM 30.2 °F - 27.9 °F 91% 30.48 in 10.0 mi Calm Calm - N/A   Clear
9:35 AM 32.5 °F 29.3 °F 28.6 °F 85% 30.49 in 10.0 mi NE 3.5 mph - N/A   Clear
9:55 AM 32.5 °F 29.3 °F 27.1 °F 80% 30.49 in 10.0 mi NNE 3.5 mph - N/A   Clear
10:15 AM 35.1 °F - 27.9 °F 75% 30.49 in 10.0 mi Calm Calm - N/A   Clear
10:35 AM 35.1 °F - 26.1 °F 70% 30.50 in 10.0 mi Calm Calm - N/A   Clear
10:55 AM 35.2 °F - 24.4 °F 65% 30.50 in 10.0 mi Calm Calm - N/A   Clear
11:15 AM 37.6 °F - 26.2 °F 64% 30.49 in 10.0 mi Calm Calm - N/A   Clear
11:35 AM 37.6 °F - 26.1 °F 63% 30.49 in 10.0 mi Calm Calm - N/A   Clear
11:55 AM 37.6 °F - 25.2 °F 61% 30.48 in 10.0 mi Calm Calm - N/A   Clear
12:15 PM 37.6 °F 32.3 °F 25.5 °F 62% 30.48 in 10.0 mi NE 6.9 mph - N/A   Clear
12:35 PM 37.6 °F - 24.3 °F 59% 30.48 in 10.0 mi Calm Calm - N/A   Clear
12:55 PM 38.8 °F 34.6 °F 24.6 °F 57% 30.47 in 10.0 mi NNE 5.8 mph - N/A   Clear
1:15 PM 39.0 °F - 24.1 °F 55% 30.47 in 10.0 mi Calm Calm - N/A   Clear
1:35 PM 39.9 °F 35.8 °F 24.4 °F 54% 30.46 in 10.0 mi East 5.8 mph - N/A   Clear
1:55 PM 39.2 °F - 24.6 °F 56% 30.45 in 10.0 mi Calm Calm - N/A   Clear
2:15 PM 40.1 °F 38.0 °F 25.7 °F 56% 30.45 in 10.0 mi ENE 3.5 mph - N/A   Clear
2:35 PM 40.5 °F 38.4 °F 25.9 °F 56% 30.45 in 10.0 mi ENE 3.5 mph - N/A   Clear
2:55 PM 40.3 °F 37.1 °F 25.2 °F 55% 30.45 in 10.0 mi ENE 4.6 mph - N/A   Clear
3:15 PM 40.5 °F - 25.0 °F 54% 30.44 in 10.0 mi Calm Calm - N/A   Clear
3:35 PM 41.4 °F 37.6 °F 26.1 °F 55% 30.44 in 10.0 mi ENE 5.8 mph - N/A   Clear
3:55 PM 41.5 °F 39.6 °F 25.7 °F 53% 30.43 in 10.0 mi ENE 3.5 mph - N/A   Clear
4:15 PM 41.2 °F - 24.6 °F 52% 30.43 in 10.0 mi Calm Calm - N/A   Clear
4:35 PM 41.4 °F - 24.6 °F 51% 30.42 in 10.0 mi Calm Calm - N/A   Clear
4:55 PM 41.4 °F 37.6 °F 25.7 °F 54% 30.40 in 10.0 mi NE 5.8 mph - N/A   Clear
5:15 PM 41.4 °F 36.2 °F 25.7 °F 54% 30.40 in 10.0 mi East 8.1 mph - N/A   Clear
5:35 PM 40.8 °F 36.9 °F 25.7 °F 55% 30.40 in 10.0 mi ESE 5.8 mph - N/A   Clear
5:55 PM 40.1 °F 36.9 °F 27.1 °F 60% 30.41 in 10.0 mi East 4.6 mph - N/A   Clear
6:15 PM 39.2 °F 35.9 °F 26.6 °F 61% 30.41 in 10.0 mi ESE 4.6 mph - N/A   Clear
6:35 PM 38.1 °F 34.6 °F 26.6 °F 63% 30.41 in 10.0 mi ESE 4.6 mph - N/A   Clear
6:55 PM 37.6 °F 35.1 °F 26.4 °F 64% 30.41 in 10.0 mi ESE 3.5 mph - N/A   Clear
7:15 PM 37.6 °F 35.1 °F 27.1 °F 66% 30.42 in 10.0 mi East 3.5 mph - N/A   Clear
7:35 PM 35.1 °F - 30.2 °F 82% 30.42 in 10.0 mi Calm Calm - N/A   Clear
7:55 PM 32.5 °F - 30.0 °F 90% 30.42 in 10.0 mi Calm Calm - N/A   Clear
8:15 PM 32.5 °F - 31.3 °F 95% 30.43 in 10.0 mi Calm Calm - N/A   Clear
8:35 PM 32.5 °F - 31.1 °F 94% 30.43 in 10.0 mi Calm Calm - N/A   Clear
8:55 PM 30.2 °F - 29.3 °F 96% 30.43 in 10.0 mi Calm Calm - N/A   Clear
9:15 PM 30.4 °F - 29.5 °F 96% 30.43 in 10.0 mi Calm Calm - N/A   Clear
9:35 PM 29.3 °F 25.6 °F 28.6 °F 97% 30.43 in 10.0 mi North 3.5 mph - N/A   Clear
9:55 PM 27.9 °F - 27.0 °F 96% 30.43 in 10.0 mi Calm Calm - N/A   Clear
10:15 PM 27.9 °F - 27.3 °F 98% 30.42 in 10.0 mi Calm Calm - N/A   Clear
10:35 PM 30.0 °F 26.5 °F 29.5 °F 98% 30.41 in 10.0 mi North 3.5 mph - N/A   Clear
10:55 PM 27.9 °F 24.0 °F 27.3 °F 98% 30.41 in 10.0 mi North 3.5 mph - N/A   Clear
11:15 PM 28.2 °F 24.4 °F 28.0 °F 99% 30.41 in 10.0 mi North 3.5 mph - N/A   Clear
11:35 PM 28.8 °F - 28.2 °F 98% 30.41 in 10.0 mi Calm Calm - N/A   Clear
11:55 PM 29.1 °F - 28.6 °F 98% 30.41 in 10.0 mi Calm Calm - N/A   Clear